createdAt,value
2022-10-07T00:01:38.756Z,101129.72
2022-10-07T00:04:25.062Z,101128.37
2022-10-07T00:07:11.238Z,101134.34
2022-10-07T00:09:57.774Z,101129.44
2022-10-07T00:12:43.924Z,101128.72
2022-10-07T00:15:30.182Z,101124.47
2022-10-07T00:18:16.043Z,101116.00
2022-10-07T00:21:03.477Z,101119.28
2022-10-07T00:23:49.248Z,101121.91
2022-10-07T00:26:36.497Z,101123.38
2022-10-07T00:29:22.385Z,101119.16
2022-10-07T00:32:10.515Z,101121.53
2022-10-07T00:34:56.360Z,101118.41
2022-10-07T00:37:43.554Z,101110.81
2022-10-07T00:40:29.932Z,101115.63
2022-10-07T00:43:24.301Z,101110.34
2022-10-07T00:46:16.962Z,101108.31
2022-10-07T00:49:05.294Z,101103.81
2022-10-07T00:51:51.916Z,101110.41
2022-10-07T00:54:38.088Z,101111.44
2022-10-07T00:57:25.049Z,101108.47
2022-10-07T01:00:11.501Z,101109.09
2022-10-07T01:02:57.526Z,101105.38
2022-10-07T01:05:43.973Z,101103.62
2022-10-07T01:08:29.724Z,101103.38
2022-10-07T01:11:18.030Z,101099.47
2022-10-07T01:14:07.385Z,101098.03
2022-10-07T01:17:14.066Z,101100.53
2022-10-07T01:20:17.356Z,101087.94
2022-10-07T01:23:03.520Z,101089.34
2022-10-07T01:25:56.007Z,101094.94
2022-10-07T01:28:42.543Z,101095.47
2022-10-07T01:31:32.733Z,101104.44
2022-10-07T01:34:19.115Z,101102.34
2022-10-07T01:37:05.768Z,101094.56
2022-10-07T01:39:53.483Z,101091.13
2022-10-07T01:42:39.694Z,101097.84
2022-10-07T01:45:26.673Z,101105.25
2022-10-07T01:48:12.202Z,101095.91
2022-10-07T01:51:00.445Z,101094.66
2022-10-07T01:54:02.507Z,101104.84
2022-10-07T01:56:50.063Z,101092.62
2022-10-07T01:59:36.944Z,101091.00
2022-10-07T02:02:49.683Z,101089.69
2022-10-07T02:05:51.381Z,101084.50
2022-10-07T02:08:39.661Z,101087.66
2022-10-07T02:11:29.704Z,101082.31
2022-10-07T02:14:16.640Z,101090.16
2022-10-07T02:17:04.026Z,101095.56
2022-10-07T02:19:53.482Z,101096.16
2022-10-07T02:22:39.950Z,101094.72
2022-10-07T02:25:25.847Z,101103.00
2022-10-07T02:28:12.860Z,101096.69
2022-10-07T02:31:00.065Z,101089.06
2022-10-07T02:33:47.164Z,101093.69
2022-10-07T02:36:34.852Z,101081.16
2022-10-07T02:39:21.623Z,101087.53
2022-10-07T02:42:09.228Z,101088.56
2022-10-07T02:44:56.709Z,101087.53
2022-10-07T02:47:45.259Z,101087.34
2022-10-07T02:50:34.733Z,101082.75
2022-10-07T02:53:20.711Z,101087.13
2022-10-07T02:56:07.470Z,101085.97
2022-10-07T02:58:53.557Z,101082.16
2022-10-07T03:01:41.651Z,101083.91
2022-10-07T03:04:27.712Z,101081.81
2022-10-07T03:07:14.028Z,101082.31
2022-10-07T03:09:59.913Z,101078.34
2022-10-07T03:12:46.375Z,101080.16
2022-10-07T03:15:32.985Z,101068.56
2022-10-07T03:18:29.380Z,101071.47
2022-10-07T03:21:16.630Z,101079.34
2022-10-07T03:24:05.182Z,101070.31
2022-10-07T03:26:52.947Z,101070.94
2022-10-07T03:29:39.343Z,101075.00
2022-10-07T03:32:27.265Z,101076.66
2022-10-07T03:35:13.987Z,101077.44
2022-10-07T03:38:01.099Z,101083.09
2022-10-07T03:40:48.153Z,101079.00
2022-10-07T03:43:34.233Z,101079.81
2022-10-07T03:46:21.002Z,101079.16
2022-10-07T03:49:07.828Z,101085.72
2022-10-07T03:51:54.179Z,101077.34
2022-10-07T03:54:40.107Z,101075.00
2022-10-07T03:57:45.502Z,101078.72
2022-10-07T04:00:31.395Z,101068.13
2022-10-07T04:03:18.799Z,101069.62
2022-10-07T04:06:05.029Z,101068.00
2022-10-07T04:08:52.088Z,101061.34
2022-10-07T04:11:40.658Z,101066.22
2022-10-07T04:14:27.271Z,101061.44
2022-10-07T04:17:13.949Z,101057.53
2022-10-07T04:20:00.107Z,101067.63
2022-10-07T04:22:46.289Z,101058.75
2022-10-07T04:25:35.870Z,101056.28
2022-10-07T04:28:24.219Z,101048.09
2022-10-07T04:31:11.441Z,101055.81
2022-10-07T04:33:58.210Z,101049.94
2022-10-07T04:36:44.487Z,101054.13
2022-10-07T04:39:56.136Z,101053.53
2022-10-07T04:42:55.507Z,101050.37
2022-10-07T04:45:41.976Z,101055.41
2022-10-07T04:48:28.185Z,101055.22
2022-10-07T04:51:16.014Z,101060.13
2022-10-07T04:54:03.070Z,101057.19
2022-10-07T04:56:50.098Z,101060.50
2022-10-07T04:59:42.475Z,101078.75
2022-10-07T05:02:30.005Z,101072.66
2022-10-07T05:05:17.648Z,101073.34
2022-10-07T05:08:04.207Z,101068.53
2022-10-07T05:10:54.415Z,101068.97
2022-10-07T05:13:40.681Z,101068.66
2022-10-07T05:16:27.101Z,101066.59
2022-10-07T05:19:12.822Z,101085.28
2022-10-07T05:21:59.187Z,101087.06
2022-10-07T05:24:45.118Z,101086.44
2022-10-07T05:27:32.497Z,101090.91
2022-10-07T05:30:19.187Z,101087.19
2022-10-07T05:33:05.486Z,101086.19
2022-10-07T05:35:51.573Z,101082.94
2022-10-07T05:38:38.181Z,101084.16
2022-10-07T05:41:24.008Z,101088.97
2022-10-07T05:44:10.094Z,101086.38
2022-10-07T05:46:56.470Z,101086.72
2022-10-07T05:49:43.266Z,101078.97
2022-10-07T05:52:30.378Z,101086.28
2022-10-07T05:55:18.486Z,101091.97
2022-10-07T05:58:04.878Z,101089.69
2022-10-07T06:00:55.279Z,101084.84
2022-10-07T06:03:42.010Z,101094.09
2022-10-07T06:06:30.157Z,101105.44
2022-10-07T06:09:35.425Z,101097.13
2022-10-07T06:12:40.118Z,101116.97
2022-10-07T06:15:26.103Z,101112.84
2022-10-07T06:18:12.103Z,101111.78
2022-10-07T06:20:59.443Z,101109.19
2022-10-07T06:23:51.289Z,101107.38
2022-10-07T06:26:38.100Z,101108.09
2022-10-07T06:29:24.023Z,101107.00
2022-10-07T06:32:10.548Z,101104.94
2022-10-07T06:34:57.133Z,101102.13
2022-10-07T06:37:44.567Z,101102.47
2022-10-07T06:40:30.373Z,101097.03
2022-10-07T06:43:17.189Z,101091.47
2022-10-07T06:46:04.264Z,101098.16
2022-10-07T06:48:51.275Z,101094.28
2022-10-07T06:51:37.316Z,101086.81
2022-10-07T06:54:24.301Z,101089.38
2022-10-07T06:57:33.117Z,101088.88
2022-10-07T07:00:16.968Z,101087.97
2022-10-07T07:03:02.680Z,101085.53
2022-10-07T07:05:50.962Z,101090.72
2022-10-07T07:08:45.912Z,101086.25
2022-10-07T07:11:38.275Z,101090.59
2022-10-07T07:14:25.927Z,101094.06
2022-10-07T07:17:12.284Z,101091.03
2022-10-07T07:19:58.587Z,101093.59
2022-10-07T07:22:45.079Z,101096.78
2022-10-07T07:25:32.032Z,101088.63
2022-10-07T07:28:18.862Z,101090.19
2022-10-07T07:31:09.498Z,101091.72
2022-10-07T07:33:57.118Z,101089.34
2022-10-07T07:36:44.347Z,101089.44
2022-10-07T07:39:31.043Z,101089.25
2022-10-07T07:42:18.989Z,101091.31
2022-10-07T07:45:06.037Z,101086.84
2022-10-07T07:47:52.939Z,101082.16
2022-10-07T07:50:40.078Z,101073.38
2022-10-07T07:53:26.047Z,101080.09
2022-10-07T07:56:12.663Z,101083.72
2022-10-07T07:58:59.436Z,101086.41
2022-10-07T08:01:45.530Z,101077.41
2022-10-07T08:04:31.901Z,101086.62
2022-10-07T08:07:18.252Z,101062.31
2022-10-07T08:10:04.907Z,101069.06
2022-10-07T08:12:50.985Z,101068.53
2022-10-07T08:15:37.428Z,101061.19
2022-10-07T08:18:23.163Z,101053.97
2022-10-07T08:21:10.679Z,101057.16
2022-10-07T08:23:57.523Z,101053.00
2022-10-07T08:26:44.593Z,101056.12
2022-10-07T08:29:31.069Z,101056.06
2022-10-07T08:32:17.465Z,101054.34
2022-10-07T08:35:03.695Z,101057.41
2022-10-07T08:37:49.927Z,101053.59
2022-10-07T08:40:35.990Z,101048.78
2022-10-07T08:43:23.746Z,101044.50
2022-10-07T08:46:11.117Z,101039.53
2022-10-07T08:48:59.968Z,101036.56
2022-10-07T08:51:50.588Z,101033.03
2022-10-07T08:54:36.399Z,101028.75
2022-10-07T08:57:46.538Z,101038.66
2022-10-07T09:00:54.129Z,101029.97
2022-10-07T09:03:39.798Z,101027.81
2022-10-07T09:06:30.726Z,101023.94
2022-10-07T09:09:17.900Z,101022.66
2022-10-07T09:12:05.339Z,101024.03
2022-10-07T09:14:55.913Z,101011.59
2022-10-07T09:17:44.019Z,101020.75
2022-10-07T09:20:31.901Z,101016.13
2022-10-07T09:23:19.296Z,101013.34
2022-10-07T09:26:12.103Z,101014.97
2022-10-07T09:28:58.766Z,100999.56
2022-10-07T09:31:44.839Z,101005.81
2022-10-07T09:34:31.383Z,100997.13
2022-10-07T09:37:21.170Z,100991.81
2022-10-07T09:40:29.993Z,100994.56
2022-10-07T09:43:16.949Z,100991.53
2022-10-07T09:46:03.346Z,100986.22
2022-10-07T09:48:52.971Z,100980.44
2022-10-07T09:51:39.652Z,100965.69
2022-10-07T09:54:26.175Z,100969.53
2022-10-07T09:57:28.953Z,100963.41
2022-10-07T10:00:22.469Z,100962.81
2022-10-07T10:03:08.892Z,100955.41
2022-10-07T10:05:59.130Z,100945.47
2022-10-07T10:08:45.131Z,100945.59
2022-10-07T10:11:31.104Z,100939.47
2022-10-07T10:14:26.772Z,100941.25
2022-10-07T10:17:51.680Z,100935.59
2022-10-07T10:20:44.631Z,100935.50
2022-10-07T10:23:30.304Z,100933.59
2022-10-07T10:26:35.861Z,100942.56
2022-10-07T10:29:21.559Z,100929.31
2022-10-07T10:32:15.661Z,100929.00
2022-10-07T10:35:07.531Z,100924.84
2022-10-07T10:38:18.951Z,100917.12
2022-10-07T10:41:21.685Z,100913.84
2022-10-07T10:44:34.858Z,100912.19
2022-10-07T10:47:48.819Z,100908.53
2022-10-07T10:50:55.020Z,100899.22
2022-10-07T10:53:49.794Z,100892.66
2022-10-07T10:56:48.264Z,100884.69
2022-10-07T10:59:48.004Z,100876.81
2022-10-07T11:02:37.325Z,100879.38
2022-10-07T11:05:24.224Z,100876.12
2022-10-07T11:08:11.204Z,100862.44
2022-10-07T11:10:56.991Z,100856.88
2022-10-07T11:13:45.752Z,100862.44
2022-10-07T11:16:33.174Z,100860.87
2022-10-07T11:19:43.293Z,100851.03
2022-10-07T11:22:32.988Z,100843.06
2022-10-07T11:25:36.628Z,100839.88
2022-10-07T11:28:29.085Z,100830.91
2022-10-07T11:31:18.762Z,100828.34
2022-10-07T11:34:05.038Z,100820.53
2022-10-07T11:36:59.921Z,100825.78
2022-10-07T11:39:46.151Z,100815.56
2022-10-07T11:42:33.724Z,100814.78
2022-10-07T11:45:20.514Z,100804.09
2022-10-07T11:48:31.115Z,100800.97
2022-10-07T11:51:20.061Z,100795.66
2022-10-07T11:54:06.770Z,100783.28
2022-10-07T11:56:52.561Z,100783.50
2022-10-07T11:59:38.900Z,100780.25
2022-10-07T12:02:28.110Z,100779.31
2022-10-07T12:05:32.909Z,100777.28
2022-10-07T12:08:27.479Z,100770.28
2022-10-07T12:11:13.660Z,100771.69
2022-10-07T12:14:02.177Z,100756.88
2022-10-07T12:16:55.176Z,100760.34
2022-10-07T12:19:41.083Z,100751.50
2022-10-07T12:22:28.055Z,100747.22
2022-10-07T12:25:29.279Z,100740.56
2022-10-07T12:28:16.270Z,100741.84
2022-10-07T12:31:02.395Z,100728.47
2022-10-07T12:33:56.406Z,100734.12
2022-10-07T12:36:42.896Z,100725.34
2022-10-07T12:39:34.553Z,100725.53
2022-10-07T12:42:20.381Z,100714.22
2022-10-07T12:45:09.222Z,100715.53
2022-10-07T12:47:57.472Z,100714.69
2022-10-07T12:50:44.790Z,100705.41
2022-10-07T12:53:35.545Z,100708.09
2022-10-07T12:56:31.401Z,100705.37
2022-10-07T12:59:35.899Z,100698.94
2022-10-07T13:02:50.362Z,100704.19
2022-10-07T13:05:43.725Z,100697.16
2022-10-07T13:09:04.043Z,100696.78
2022-10-07T13:11:56.093Z,100685.22
2022-10-07T13:14:55.361Z,100679.22
2022-10-07T13:18:09.864Z,100672.31
2022-10-07T13:21:02.325Z,100685.25
2022-10-07T13:23:55.190Z,100673.06
2022-10-07T13:26:43.835Z,100668.88
2022-10-07T13:29:33.063Z,100670.47
2022-10-07T13:32:29.735Z,100662.38
2022-10-07T13:35:36.240Z,100662.44
2022-10-07T13:38:27.271Z,100652.66
2022-10-07T13:41:16.233Z,100653.31
2022-10-07T13:44:04.627Z,100652.62
2022-10-07T13:46:58.157Z,100645.88
2022-10-07T13:49:45.435Z,100644.22
2022-10-07T13:52:38.042Z,100640.56
2022-10-07T13:55:28.336Z,100635.00
2022-10-07T13:58:14.111Z,100633.44
2022-10-07T14:01:03.822Z,100629.00
2022-10-07T14:04:04.625Z,100618.53
2022-10-07T14:06:53.771Z,100613.94
2022-10-07T14:09:49.159Z,100610.50
2022-10-07T14:12:38.874Z,100599.53
2022-10-07T14:15:25.956Z,100604.22
2022-10-07T14:18:12.600Z,100603.63
2022-10-07T14:21:09.086Z,100600.31
2022-10-07T14:23:54.940Z,100598.84
2022-10-07T14:26:43.612Z,100592.87
2022-10-07T14:29:29.353Z,100592.03
2022-10-07T14:32:38.649Z,100594.69
2022-10-07T14:35:25.847Z,100591.16
2022-10-07T14:38:27.807Z,100590.28
2022-10-07T14:41:15.901Z,100586.25
2022-10-07T14:44:04.066Z,100583.03
2022-10-07T14:46:50.144Z,100583.47
2022-10-07T14:49:36.740Z,100585.28
2022-10-07T14:52:32.244Z,100576.22
2022-10-07T14:55:19.815Z,100574.50
2022-10-07T14:58:06.034Z,100580.16
2022-10-07T15:00:52.622Z,100570.56
2022-10-07T15:03:38.793Z,100571.75
2022-10-07T15:06:25.188Z,100569.81
2022-10-07T15:09:13.139Z,100564.69
2022-10-07T15:11:59.414Z,100571.53
2022-10-07T15:14:45.203Z,100562.72
2022-10-07T15:17:31.583Z,100567.91
2022-10-07T15:20:18.120Z,100563.44
2022-10-07T15:23:05.397Z,100573.06
2022-10-07T15:25:51.964Z,100566.78
2022-10-07T15:28:38.339Z,100570.88
2022-10-07T15:31:27.102Z,100565.66
2022-10-07T15:34:14.361Z,100558.22
2022-10-07T15:37:00.795Z,100563.84
2022-10-07T15:39:47.349Z,100559.50
2022-10-07T15:42:33.702Z,100555.00
2022-10-07T15:45:20.094Z,100557.62
2022-10-07T15:48:07.257Z,100560.56
2022-10-07T15:50:53.968Z,100554.03
2022-10-07T15:53:40.388Z,100563.63
2022-10-07T15:56:27.026Z,100560.62
2022-10-07T15:59:13.522Z,100566.72
2022-10-07T16:02:00.228Z,100563.56
2022-10-07T16:04:47.299Z,100570.56
2022-10-07T16:07:33.248Z,100565.72
2022-10-07T16:10:19.665Z,100566.56
2022-10-07T16:13:05.923Z,100559.97
2022-10-07T16:16:04.088Z,100561.09
2022-10-07T16:18:51.910Z,100566.53
2022-10-07T16:21:40.786Z,100565.91
2022-10-07T16:24:30.005Z,100556.72
2022-10-07T16:27:19.311Z,100566.66
2022-10-07T16:30:24.563Z,100568.94
2022-10-07T16:33:10.982Z,100571.91
2022-10-07T16:35:58.379Z,100569.03
2022-10-07T16:38:45.981Z,100573.69
2022-10-07T16:41:32.796Z,100571.97
2022-10-07T16:44:19.902Z,100569.06
2022-10-07T16:47:06.216Z,100571.97
2022-10-07T16:49:52.355Z,100566.13
2022-10-07T16:52:38.539Z,100567.66
2022-10-07T16:55:24.933Z,100561.19
2022-10-07T16:58:11.277Z,100564.66
2022-10-07T17:01:03.685Z,100562.66
2022-10-07T17:03:51.117Z,100568.06
2022-10-07T17:06:37.679Z,100563.25
2022-10-07T17:09:25.303Z,100558.75
2022-10-07T17:12:11.942Z,100558.28
2022-10-07T17:14:58.002Z,100549.50
2022-10-07T17:17:44.576Z,100560.34
2022-10-07T17:20:31.426Z,100553.19
2022-10-07T17:23:27.342Z,100550.06
2022-10-07T17:26:14.370Z,100558.28
2022-10-07T17:29:02.733Z,100559.47
2022-10-07T17:31:50.693Z,100566.72
2022-10-07T17:34:39.906Z,100560.38
2022-10-07T17:37:29.372Z,100560.66
2022-10-07T17:40:15.703Z,100572.06
2022-10-07T17:43:04.597Z,100569.00
2022-10-07T17:45:50.820Z,100563.34
2022-10-07T17:48:37.530Z,100567.19
2022-10-07T17:51:27.896Z,100567.44
2022-10-07T17:54:14.302Z,100563.81
2022-10-07T17:57:00.875Z,100566.69
2022-10-07T17:59:46.798Z,100560.44
2022-10-07T18:02:33.903Z,100557.59
2022-10-07T18:05:20.289Z,100557.09
2022-10-07T18:08:06.714Z,100558.87
2022-10-07T18:10:53.225Z,100557.34
2022-10-07T18:13:57.692Z,100549.50
2022-10-07T18:16:44.343Z,100546.31
2022-10-07T18:19:30.703Z,100544.28
2022-10-07T18:22:17.078Z,100537.88
2022-10-07T18:25:04.354Z,100539.38
2022-10-07T18:27:52.881Z,100537.31
2022-10-07T18:30:38.921Z,100540.38
2022-10-07T18:33:25.259Z,100538.94
2022-10-07T18:36:13.860Z,100541.94
2022-10-07T18:39:00.557Z,100535.91
2022-10-07T18:41:46.823Z,100545.34
2022-10-07T18:44:33.328Z,100542.16
2022-10-07T18:47:19.792Z,100541.00
2022-10-07T18:50:06.403Z,100536.69
2022-10-07T18:52:52.530Z,100538.72
2022-10-07T18:55:39.481Z,100528.72
2022-10-07T18:58:25.864Z,100535.97
2022-10-07T19:01:12.700Z,100532.78
2022-10-07T19:04:01.362Z,100532.75
2022-10-07T19:06:47.942Z,100528.81
2022-10-07T19:09:34.424Z,100525.06
2022-10-07T19:12:39.370Z,100528.31
2022-10-07T19:15:25.513Z,100523.34
2022-10-07T19:18:13.245Z,100532.56
2022-10-07T19:20:59.736Z,100524.87
2022-10-07T19:23:50.108Z,100530.19
2022-10-07T19:26:38.229Z,100532.97
2022-10-07T19:29:24.524Z,100530.00
2022-10-07T19:32:10.588Z,100532.50
2022-10-07T19:34:57.364Z,100527.59
2022-10-07T19:37:43.356Z,100533.13
2022-10-07T19:40:29.695Z,100539.34
2022-10-07T19:43:15.714Z,100539.50
2022-10-07T19:46:02.781Z,100529.78
2022-10-07T19:48:49.618Z,100527.59
2022-10-07T19:51:37.181Z,100533.97
2022-10-07T19:54:23.556Z,100530.72
2022-10-07T19:57:11.795Z,100534.78
2022-10-07T19:59:57.878Z,100534.50
2022-10-07T20:02:44.174Z,100534.63
2022-10-07T20:05:31.581Z,100527.94
2022-10-07T20:08:18.005Z,100537.03
2022-10-07T20:11:05.267Z,100542.09
2022-10-07T20:13:54.288Z,100539.50
2022-10-07T20:16:40.926Z,100528.87
2022-10-07T20:19:27.068Z,100537.41
2022-10-07T20:22:13.497Z,100533.34
2022-10-07T20:25:01.051Z,100532.19
2022-10-07T20:27:49.182Z,100535.28
2022-10-07T20:30:35.595Z,100537.41
2022-10-07T20:33:21.901Z,100540.16
2022-10-07T20:36:11.037Z,100536.25
2022-10-07T20:39:18.344Z,100529.91
2022-10-07T20:42:22.045Z,100532.19
2022-10-07T20:45:08.861Z,100533.19
2022-10-07T20:47:59.463Z,100524.06
2022-10-07T20:50:45.665Z,100532.34
2022-10-07T20:53:31.844Z,100526.50
2022-10-07T20:56:18.769Z,100527.41
2022-10-07T20:59:04.546Z,100522.88
2022-10-07T21:01:51.345Z,100528.34
2022-10-07T21:04:37.229Z,100523.84
2022-10-07T21:07:23.503Z,100524.00
2022-10-07T21:10:09.289Z,100516.69
2022-10-07T21:12:55.728Z,100511.53
2022-10-07T21:15:42.598Z,100517.25
2022-10-07T21:18:29.902Z,100511.41
2022-10-07T21:21:16.085Z,100512.09
2022-10-07T21:24:02.401Z,100510.81
2022-10-07T21:26:48.795Z,100510.03
2022-10-07T21:29:40.190Z,100506.69
2022-10-07T21:32:28.154Z,100515.94
2022-10-07T21:35:14.178Z,100512.97
2022-10-07T21:38:00.645Z,100514.47
2022-10-07T21:40:46.976Z,100514.72
2022-10-07T21:43:33.343Z,100508.47
2022-10-07T21:46:20.900Z,100511.63
2022-10-07T21:49:07.800Z,100513.81
2022-10-07T21:51:54.032Z,100515.44
2022-10-07T21:54:41.140Z,100506.88
2022-10-07T21:57:27.143Z,100499.72
2022-10-07T22:00:13.658Z,100497.47
2022-10-07T22:03:00.300Z,100494.59
2022-10-07T22:05:46.767Z,100493.72
2022-10-07T22:08:36.313Z,100489.59
2022-10-07T22:11:22.429Z,100491.56
2022-10-07T22:14:12.495Z,100485.13
2022-10-07T22:16:58.948Z,100482.97
2022-10-07T22:19:45.154Z,100477.91
2022-10-07T22:22:31.771Z,100479.72
2022-10-07T22:25:18.429Z,100475.88
2022-10-07T22:28:04.255Z,100479.56
2022-10-07T22:30:50.797Z,100480.72
2022-10-07T22:33:37.998Z,100471.78
2022-10-07T22:36:25.078Z,100470.34
2022-10-07T22:39:11.058Z,100469.41
2022-10-07T22:41:58.587Z,100464.75
2022-10-07T22:44:44.368Z,100470.13
2022-10-07T22:47:30.686Z,100463.63
2022-10-07T22:50:16.965Z,100463.25
2022-10-07T22:53:03.947Z,100456.97
2022-10-07T22:55:50.653Z,100458.72
2022-10-07T22:58:39.076Z,100457.09
2022-10-07T23:01:25.309Z,100455.81
2022-10-07T23:04:11.668Z,100456.09
2022-10-07T23:06:58.743Z,100458.50
2022-10-07T23:09:44.982Z,100455.81
2022-10-07T23:12:31.414Z,100443.09
2022-10-07T23:15:20.010Z,100448.19
2022-10-07T23:18:06.107Z,100446.41
2022-10-07T23:21:04.341Z,100443.34
2022-10-07T23:23:53.159Z,100455.53
2022-10-07T23:26:39.467Z,100442.84
2022-10-07T23:29:26.612Z,100442.47
2022-10-07T23:32:13.372Z,100447.72
2022-10-07T23:34:59.941Z,100448.22
2022-10-07T23:37:46.080Z,100440.53
2022-10-07T23:40:32.111Z,100437.66
2022-10-07T23:43:18.345Z,100440.28
2022-10-07T23:46:05.975Z,100437.19
2022-10-07T23:48:52.654Z,100439.16
2022-10-07T23:51:38.841Z,100433.94
2022-10-07T23:54:25.489Z,100426.72
2022-10-07T23:57:11.961Z,100425.12
2022-10-07T23:59:58.200Z,100418.38
